Time;durP1;ratioP1;P1;durP2;ratioP2;P2;SDS_P1;SDS_P2;PMS_P1;PMS_P2;Temp;Humidity;BMP_temperature;BMP_pressure;BME280_temperature;BME280_humidity;BME280_pressure;Samples;Min_cycle;Max_cycle;Signal;HPM_P1;HPM_P2
2023/03/11 00:01:25;;;;;;;4.75;2.35;;;;;;;0.07;100.00;99747.38;6301762;28;20118;-76
2023/03/11 00:04:27;;;;;;;3.78;2.13;;;;;;;0.12;100.00;99750.69;6296206;28;20037;-76
2023/03/11 00:07:29;;;;;;;4.63;2.42;;;;;;;0.03;100.00;99756.94;6297808;28;20047;-76
2023/03/11 00:10:32;;;;;;;4.82;2.60;;;;;;;0.02;100.00;99762.16;6301882;28;20135;-76
2023/03/11 00:13:35;;;;;;;2.75;1.30;;;;;;;0.02;100.00;99772.47;6301535;28;20052;-76
2023/03/11 00:16:37;;;;;;;2.67;1.35;;;;;;;-0.09;100.00;99778.78;6295800;28;20456;-76
2023/03/11 00:19:39;;;;;;;5.43;1.85;;;;;;;0.04;100.00;99784.44;6284823;28;20049;-76
2023/03/11 00:22:41;;;;;;;2.75;1.50;;;;;;;0.01;100.00;99791.44;6295059;28;20063;-76
2023/03/11 00:25:43;;;;;;;4.53;2.50;;;;;;;-0.13;100.00;99796.97;6301013;28;20045;-76
2023/03/11 00:28:44;;;;;;;3.00;1.55;;;;;;;-0.08;100.00;99803.69;6278086;28;20052;-75
2023/03/11 00:31:46;;;;;;;1.50;1.02;;;;;;;-0.09;100.00;99814.03;6279210;28;20083;-76
2023/03/11 00:34:49;;;;;;;1.05;0.85;;;;;;;-0.06;100.00;99821.72;6292434;28;20446;-75
2023/03/11 00:37:54;;;;;;;3.15;1.15;;;;;;;-0.15;100.00;99822.81;6300834;28;20048;-76
2023/03/11 00:40:55;;;;;;;2.63;1.38;;;;;;;-0.06;100.00;99832.91;6284761;28;20049;-75
2023/03/11 00:43:56;;;;;;;2.97;1.20;;;;;;;-0.19;100.00;99835.81;6300752;28;20055;-76
2023/03/11 00:46:58;;;;;;;1.77;1.20;;;;;;;-0.15;100.00;99843.47;6292196;28;20040;-76
2023/03/11 00:50:00;;;;;;;2.58;1.45;;;;;;;-0.06;100.00;99856.16;6298976;28;20040;-76
2023/03/11 00:53:03;;;;;;;2.53;1.55;;;;;;;-0.07;100.00;99872.53;6300567;28;20048;-76
2023/03/11 00:56:09;;;;;;;1.55;1.10;;;;;;;-0.07;100.00;99876.84;6300513;28;20333;-75
2023/03/11 00:59:10;;;;;;;1.80;1.05;;;;;;;-0.11;100.00;99877.81;6292196;28;20041;-75
2023/03/11 01:02:11;;;;;;;3.45;1.20;;;;;;;-0.02;100.00;99891.34;6300599;28;20059;-75
2023/03/11 01:05:14;;;;;;;3.45;1.73;;;;;;;0.04;100.00;99880.00;6283652;28;20045;-76
2023/03/11 01:08:16;;;;;;;1.75;1.15;;;;;;;0.01;100.00;99885.28;6300243;28;20052;-75
2023/03/11 01:11:17;;;;;;;3.15;1.58;;;;;;;-0.06;100.00;99886.28;6297629;28;20057;-75
2023/03/11 01:14:18;;;;;;;4.07;1.40;;;;;;;-0.04;100.00;99903.47;6295050;28;20049;-75
2023/03/11 01:17:21;;;;;;;2.33;1.15;;;;;;;-0.03;100.00;99901.72;6280323;28;20041;-76
2023/03/11 01:20:24;;;;;;;2.58;1.55;;;;;;;-0.02;100.00;99911.16;6287442;28;20123;-75
2023/03/11 01:23:25;;;;;;;3.22;1.30;;;;;;;0.04;100.00;99913.59;6291813;28;20352;-75
2023/03/11 01:26:27;;;;;;;3.38;1.35;;;;;;;0.02;100.00;99924.84;6299606;28;20473;-75
2023/03/11 01:29:28;;;;;;;1.33;1.00;;;;;;;-0.03;100.00;99932.72;6287518;28;20044;-75
2023/03/11 01:32:30;;;;;;;3.15;1.58;;;;;;;0.00;100.00;99922.31;6279604;28;20429;-76
2023/03/11 01:35:34;;;;;;;1.98;1.40;;;;;;;0.01;100.00;99934.34;6299905;28;20052;-75
2023/03/11 01:38:35;;;;;;;1.58;1.10;;;;;;;0.02;100.00;99932.59;6282523;28;20044;-76
2023/03/11 01:41:36;;;;;;;2.17;1.77;;;;;;;0.04;100.00;99941.16;6275908;28;20349;-76
2023/03/11 01:44:38;;;;;;;0.93;0.75;;;;;;;0.00;100.00;99937.81;6296977;28;20044;-76
2023/03/11 01:47:39;;;;;;;3.22;1.55;;;;;;;-0.08;100.00;99950.91;6299627;28;20052;-75
2023/03/11 01:50:44;;;;;;;1.75;0.90;;;;;;;-0.10;100.00;99949.22;6291806;28;20472;-76
2023/03/11 01:53:46;;;;;;;2.88;1.77;;;;;;;-0.05;100.00;99961.13;6299452;28;20053;-75
2023/03/11 01:56:49;;;;;;;1.58;1.35;;;;;;;0.05;100.00;99958.38;6304588;28;20048;-75
2023/03/11 01:59:53;;;;;;;3.30;1.20;;;;;;;0.01;100.00;99967.06;6289017;28;20077;-75
2023/03/11 02:02:59;;;;;;;2.92;1.63;;;;;;;-0.10;100.00;99964.72;6304482;28;20055;-75
2023/03/11 02:06:06;;;;;;;1.77;1.10;;;;;;;-0.05;100.00;99975.78;6294454;28;20800;-76
2023/03/11 02:09:08;;;;;;;1.05;0.80;;;;;;;-0.07;100.00;99978.41;6304697;28;20049;-75
2023/03/11 02:12:13;;;;;;;1.33;1.10;;;;;;;-0.04;100.00;99983.53;6286170;28;20076;-75
2023/03/11 02:15:15;;;;;;;1.65;1.13;;;;;;;-0.09;100.00;99990.53;6279523;28;20464;-75
2023/03/11 02:18:19;;;;;;;1.42;1.00;;;;;;;-0.05;100.00;99991.28;6279364;28;20053;-75
2023/03/11 02:21:26;;;;;;;3.42;1.23;;;;;;;-0.07;100.00;99996.50;6299224;28;20045;-75
2023/03/11 02:24:35;;;;;;;1.13;1.02;;;;;;;-0.08;100.00;99993.94;6295234;28;20455;-75
2023/03/11 02:27:41;;;;;;;1.70;1.15;;;;;;;-0.09;100.00;99992.22;6282066;28;20436;-75
2023/03/11 02:30:44;;;;;;;1.42;0.85;;;;;;;-0.08;100.00;99999.13;6279332;28;20356;-75
2023/03/11 02:33:47;;;;;;;6.70;1.27;;;;;;;-0.13;100.00;99995.78;6285765;28;20064;-75
2023/03/11 02:36:48;;;;;;;0.98;0.70;;;;;;;-0.20;100.00;100007.97;6303567;28;20060;-75
2023/03/11 02:39:53;;;;;;;2.47;1.15;;;;;;;-0.21;100.00;100011.44;6296748;28;20049;-75
2023/03/11 02:42:59;;;;;;;4.72;0.80;;;;;;;-0.27;100.00;100015.00;6278967;28;20049;-76
2023/03/11 02:46:02;;;;;;;1.70;1.02;;;;;;;-0.28;100.00;100009.84;6295544;28;20041;-75
2023/03/11 02:49:04;;;;;;;4.53;1.60;;;;;;;-0.21;100.00;100014.00;6301853;28;20044;-75
2023/03/11 02:52:06;;;;;;;2.05;1.23;;;;;;;-0.17;100.00;100017.38;6295395;28;20060;-75
2023/03/11 02:55:08;;;;;;;3.70;1.15;;;;;;;-0.16;100.00;100030.25;6303284;28;20048;-75
2023/03/11 02:58:11;;;;;;;6.22;2.20;;;;;;;-0.16;100.00;100025.09;6303124;28;20052;-75
2023/03/11 03:01:12;;;;;;;4.25;2.15;;;;;;;-0.17;100.00;100038.03;6303440;28;20436;-75
2023/03/11 03:04:14;;;;;;;3.28;1.63;;;;;;;-0.18;100.00;100052.69;6302978;28;20429;-76
2023/03/11 03:07:15;;;;;;;1.60;1.35;;;;;;;-0.18;100.00;100044.94;6303152;28;20048;-75
2023/03/11 03:10:18;;;;;;;4.50;1.80;;;;;;;-0.13;100.00;100048.28;6302909;28;20052;-75
2023/03/11 03:13:21;;;;;;;3.13;1.65;;;;;;;-0.16;100.00;100050.91;6303257;28;20048;-75
2023/03/11 03:16:22;;;;;;;1.98;1.40;;;;;;;-0.11;100.00;100051.66;6299342;28;20049;-75
2023/03/11 03:19:25;;;;;;;2.80;1.08;;;;;;;-0.09;100.00;100057.66;6291485;28;20428;-75
2023/03/11 03:22:28;;;;;;;3.28;1.30;;;;;;;-0.10;100.00;100055.94;6299062;28;20041;-75
2023/03/11 03:25:29;;;;;;;2.38;1.02;;;;;;;-0.04;100.00;100068.75;6278039;28;20057;-75
2023/03/11 03:28:32;;;;;;;1.02;0.95;;;;;;;-0.09;100.00;100074.88;6277634;28;20045;-75
2023/03/11 03:31:34;;;;;;;0.95;0.90;;;;;;;-0.02;100.00;100086.78;6277847;28;20049;-75
2023/03/11 03:34:35;;;;;;;5.38;1.42;;;;;;;-0.02;100.00;100087.63;6298149;28;20053;-75
2023/03/11 03:37:37;;;;;;;15.07;2.17;;;;;;;-0.06;100.00;100092.88;6280413;28;20441;-75
2023/03/11 03:40:39;;;;;;;0.75;0.68;;;;;;;-0.11;100.00;100103.31;6294019;28;20049;-75
2023/03/11 03:43:42;;;;;;;1.20;0.50;;;;;;;-0.11;100.00;100108.47;6291666;28;20045;-75
2023/03/11 03:46:43;;;;;;;2.55;1.38;;;;;;;-0.09;100.00;100113.59;6295499;28;20041;-74
2023/03/11 03:49:45;;;;;;;7.68;0.88;;;;;;;-0.14;100.00;100121.44;6295434;28;20044;-75
2023/03/11 03:52:46;;;;;;;0.85;0.75;;;;;;;-0.19;100.00;100132.75;6278959;28;20045;-75
2023/03/11 03:55:49;;;;;;;0.98;0.63;;;;;;;-0.26;100.00;100143.19;6293996;28;20052;-75
2023/03/11 03:58:53;;;;;;;1.23;0.80;;;;;;;-0.26;100.00;100138.03;6302078;28;20044;-75
2023/03/11 04:01:54;;;;;;;8.55;0.63;;;;;;;-0.31;100.00;100139.00;6294371;28;20053;-74
2023/03/11 04:04:56;;;;;;;0.88;0.50;;;;;;;-0.27;100.00;100146.66;6293445;28;20070;-75
2023/03/11 04:07:58;;;;;;;0.73;0.40;;;;;;;-0.26;100.00;100145.78;6301399;28;20055;-75
2023/03/11 04:10:59;;;;;;;1.65;0.88;;;;;;;-0.25;100.00;100156.97;6293378;28;20044;-74
2023/03/11 04:14:02;;;;;;;2.58;1.17;;;;;;;-0.27;100.00;100159.56;6301775;28;20338;-74
2023/03/11 04:17:03;;;;;;;3.45;1.10;;;;;;;-0.32;100.00;100147.59;6291853;28;20076;-75
2023/03/11 04:20:07;;;;;;;7.93;1.55;;;;;;;-0.30;100.00;100156.19;6276524;28;20352;-75
2023/03/11 04:23:08;;;;;;;1.10;0.95;;;;;;;-0.28;100.00;100157.00;6285832;28;20053;-74
2023/03/11 04:26:10;;;;;;;0.95;0.77;;;;;;;-0.28;100.00;100152.69;6291253;28;20056;-75
2023/03/11 04:29:12;;;;;;;2.85;0.98;;;;;;;-0.36;100.00;100146.00;6276435;28;20045;-75
2023/03/11 04:32:14;;;;;;;5.15;0.93;;;;;;;-0.33;100.00;100154.50;6285515;28;20048;-74
2023/03/11 04:35:15;;;;;;;2.10;0.55;;;;;;;-0.27;100.00;100161.31;6269247;28;20164;-75
2023/03/11 04:38:17;;;;;;;5.40;0.75;;;;;;;-0.28;100.00;100162.16;6263994;28;20049;-75
2023/03/11 04:41:18;;;;;;;2.10;0.95;;;;;;;-0.25;100.00;100164.69;6265085;28;20048;-75
2023/03/11 04:44:21;;;;;;;3.50;0.95;;;;;;;-0.19;100.00;100164.56;6263947;28;20044;-74
2023/03/11 04:47:23;;;;;;;0.75;0.75;;;;;;;-0.23;100.00;100162.06;6262990;28;20037;-75
2023/03/11 04:50:24;;;;;;;4.93;0.60;;;;;;;-0.22;100.00;100172.41;6284916;28;20033;-75
2023/03/11 04:53:26;;;;;;;7.53;1.88;;;;;;;-0.18;100.00;100179.22;6288036;28;20047;-75
2023/03/11 04:56:27;;;;;;;6.18;0.60;;;;;;;-0.15;100.00;100179.13;6288636;28;20040;-75
2023/03/11 04:59:30;;;;;;;2.13;1.27;;;;;;;-0.22;100.00;100187.91;6287518;28;20174;-75
2023/03/11 05:02:31;;;;;;;14.50;1.48;;;;;;;-0.19;100.00;100200.72;6288254;28;20044;-75
2023/03/11 05:05:32;;;;;;;2.63;0.60;;;;;;;-0.20;100.00;100200.75;6286381;28;20044;-75
2023/03/11 05:08:34;;;;;;;0.68;0.40;;;;;;;-0.18;100.00;100214.47;6287897;28;20452;-75
2023/03/11 05:11:35;;;;;;;3.60;0.80;;;;;;;-0.17;100.00;100211.91;6287930;28;20047;-75
2023/03/11 05:14:39;;;;;;;0.28;0.28;;;;;;;-0.14;100.00;100224.72;6286263;28;20041;-76
2023/03/11 05:17:41;;;;;;;5.78;1.08;;;;;;;-0.17;100.00;100214.47;6287614;28;20551;-75
2023/03/11 05:20:43;;;;;;;7.22;0.57;;;;;;;-0.18;100.00;100230.84;6287292;28;20067;-75
2023/03/11 05:23:44;;;;;;;2.13;0.52;;;;;;;-0.20;100.00;100239.50;6290934;28;20055;-74
2023/03/11 05:26:46;;;;;;;5.75;0.90;;;;;;;-0.17;100.00;100249.78;6281785;28;20131;-75
2023/03/11 05:29:48;;;;;;;5.93;1.10;;;;;;;-0.23;100.00;100247.28;6274098;28;20055;-75
2023/03/11 05:32:50;;;;;;;0.55;0.52;;;;;;;-0.27;100.00;100246.50;6280213;28;20067;-75
2023/03/11 05:35:51;;;;;;;11.88;0.88;;;;;;;-0.24;100.00;100255.91;6283078;28;20040;-74
2023/03/11 05:38:53;;;;;;;0.57;0.52;;;;;;;-0.33;100.00;100260.34;6282317;28;20436;-75
2023/03/11 05:41:55;;;;;;;0.20;0.20;;;;;;;-0.35;100.00;100261.28;6284417;28;20055;-74
2023/03/11 05:44:58;;;;;;;1.08;0.65;;;;;;;-0.33;100.00;100273.25;6275386;28;20122;-74
2023/03/11 05:47:59;;;;;;;2.13;1.48;;;;;;;-0.43;100.00;100276.03;6292220;28;20037;-75
2023/03/11 05:51:00;;;;;;;3.80;1.60;;;;;;;-0.36;100.00;100277.63;6280915;28;20037;-75
2023/03/11 05:54:02;;;;;;;4.70;1.60;;;;;;;-0.41;100.00;100280.28;6283313;28;20047;-75
2023/03/11 05:57:04;;;;;;;1.98;0.82;;;;;;;-0.40;100.00;100287.16;6288468;28;20140;-75
2023/03/11 06:00:10;;;;;;;0.43;0.43;;;;;;;-0.29;100.00;100294.72;6290278;28;20048;-75
2023/03/11 06:03:12;;;;;;;4.45;0.65;;;;;;;-0.35;100.00;100287.94;6290267;28;20041;-74
2023/03/11 06:06:14;;;;;;;0.40;0.35;;;;;;;-0.34;100.00;100293.94;6290066;28;20054;-75
2023/03/11 06:09:16;;;;;;;0.70;0.63;;;;;;;-0.28;100.00;100297.25;6290318;28;20048;-75
2023/03/11 06:12:17;;;;;;;0.70;0.63;;;;;;;-0.29;100.00;100298.16;6290114;28;20103;-75
2023/03/11 06:15:20;;;;;;;11.10;2.08;;;;;;;-0.19;100.00;100305.75;6290387;28;20063;-75
2023/03/11 06:18:21;;;;;;;3.08;0.77;;;;;;;-0.17;100.00;100311.75;6289304;28;20056;-75
2023/03/11 06:21:25;;;;;;;0.40;0.40;;;;;;;-0.20;100.00;100322.13;6290187;28;20051;-75
2023/03/11 06:24:26;;;;;;;0.73;0.50;;;;;;;-0.18;100.00;100321.22;6287737;28;20201;-75
2023/03/11 06:27:28;;;;;;;0.93;0.57;;;;;;;-0.20;100.00;100329.88;6294976;28;20057;-75
2023/03/11 06:30:30;;;;;;;0.60;0.50;;;;;;;-0.20;100.00;100333.28;6299320;28;20048;-75
2023/03/11 06:33:32;;;;;;;3.40;0.55;;;;;;;-0.22;100.00;100344.53;6299199;28;20052;-75
2023/03/11 06:36:33;;;;;;;5.20;0.70;;;;;;;-0.26;100.00;100348.91;6299147;28;20063;-75
2023/03/11 06:39:35;;;;;;;2.90;1.10;;;;;;;-0.26;100.00;100361.81;6299867;28;20056;-75
2023/03/11 06:42:36;;;;;;;12.00;1.02;;;;;;;-0.27;100.00;100354.94;6283452;28;20053;-75
2023/03/11 06:45:39;;;;;;;1.05;0.70;;;;;;;-0.32;100.00;100354.13;6292788;28;20055;-75
2023/03/11 06:48:40;;;;;;;0.50;0.40;;;;;;;-0.32;100.00;100360.19;6291285;28;20048;-75
2023/03/11 06:51:42;;;;;;;0.63;0.50;;;;;;;-0.36;100.00;100368.84;6292723;28;20353;-75
2023/03/11 06:54:44;;;;;;;7.28;1.20;;;;;;;-0.35;100.00;100372.28;6292576;28;20450;-75
2023/03/11 06:57:45;;;;;;;8.57;0.45;;;;;;;-0.29;100.00;100388.50;6293447;28;20045;-75
2023/03/11 07:00:48;;;;;;;0.50;0.50;;;;;;;-0.28;100.00;100391.94;6293350;28;20049;-75
2023/03/11 07:03:50;;;;;;;0.45;0.45;;;;;;;-0.26;100.00;100392.78;6294342;28;20059;-75
2023/03/11 07:06:52;;;;;;;11.55;0.80;;;;;;;-0.27;100.00;100401.41;6293259;28;20381;-75
2023/03/11 07:09:55;;;;;;;2.38;0.88;;;;;;;-0.34;100.00;100402.38;6303120;28;20048;-75
2023/03/11 07:12:56;;;;;;;2.88;0.90;;;;;;;-0.33;100.00;100411.81;6303199;28;20051;-75
2023/03/11 07:16:05;;;;;;;1.27;0.95;;;;;;;-0.27;100.00;100416.91;6286574;28;20049;-75
2023/03/11 07:19:06;;;;;;;0.30;0.30;;;;;;;-0.33;100.00;100415.25;6280762;28;20044;-75
2023/03/11 07:22:08;;;;;;;1.20;0.80;;;;;;;-0.34;100.00;100416.13;6302665;28;20059;-75
2023/03/11 07:25:09;;;;;;;3.85;0.65;;;;;;;-0.28;100.00;100425.50;6302822;28;20135;-75
2023/03/11 07:28:11;;;;;;;2.75;0.80;;;;;;;-0.27;100.00;100434.97;6302467;28;20055;-75
2023/03/11 07:31:16;;;;;;;7.13;0.88;;;;;;;-0.26;100.00;100452.16;6302972;28;20052;-75
2023/03/11 07:34:17;;;;;;;0.68;0.30;;;;;;;-0.27;100.00;100447.88;6302450;28;20429;-75
2023/03/11 07:37:18;;;;;;;10.43;0.90;;;;;;;-0.16;100.00;100456.31;6302438;28;20361;-75
2023/03/11 07:40:20;;;;;;;2.08;1.10;;;;;;;-0.15;100.00;100460.59;6302481;28;20051;-75
2023/03/11 07:43:21;;;;;;;0.88;0.63;;;;;;;-0.06;100.00;100475.97;6301214;28;20348;-75
2023/03/11 07:46:25;;;;;;;1.35;0.85;;;;;;;0.00;100.00;100475.06;6285629;28;20041;-75
2023/03/11 07:49:26;;;;;;;1.70;0.88;;;;;;;-0.06;100.00;100486.31;6298806;28;20048;-75
2023/03/11 07:52:30;;;;;;;1.45;1.25;;;;;;;-0.14;100.00;100492.44;6297083;28;20055;-75
2023/03/11 07:55:31;;;;;;;1.05;0.60;;;;;;;-0.09;100.00;100495.81;6302050;28;20322;-75
2023/03/11 07:58:33;;;;;;;0.25;0.25;;;;;;;-0.10;100.00;100491.53;6297368;28;20058;-74
2023/03/11 08:01:39;;;;;;;6.30;1.00;;;;;;;-0.08;100.00;100495.81;6277499;28;20445;-75
2023/03/11 08:04:40;;;;;;;2.42;0.63;;;;;;;0.05;100.00;100509.41;6277071;28;20059;-75
2023/03/11 08:07:42;;;;;;;0.55;0.55;;;;;;;0.12;100.00;100515.34;6276762;28;20049;-75
2023/03/11 08:10:43;;;;;;;0.80;0.60;;;;;;;0.19;100.00;100516.97;6283327;28;20055;-76
2023/03/11 08:13:45;;;;;;;1.70;1.20;;;;;;;0.20;100.00;100534.19;6298260;28;20044;-75
2023/03/11 08:16:48;;;;;;;0.80;0.75;;;;;;;0.18;100.00;100544.53;6290355;28;20348;-75
2023/03/11 08:19:50;;;;;;;1.45;0.30;;;;;;;0.09;100.00;100548.94;6276734;28;20052;-75
2023/03/11 08:22:51;;;;;;;1.33;0.55;;;;;;;0.04;100.00;100554.19;6285031;28;20567;-75
2023/03/11 08:25:52;;;;;;;0.60;0.60;;;;;;;0.03;100.00;100549.06;6276601;28;20045;-75
2023/03/11 08:28:54;;;;;;;2.75;0.70;;;;;;;0.01;100.00;100545.66;6276515;28;20048;-75
2023/03/11 08:31:57;;;;;;;1.33;0.60;;;;;;;0.13;100.00;100558.38;6276527;28;20049;-74
2023/03/11 08:34:59;;;;;;;1.27;1.10;;;;;;;0.06;100.00;100560.19;6276509;28;20048;-74
2023/03/11 08:38:00;;;;;;;0.82;0.45;;;;;;;0.16;100.00;100571.25;6284644;28;20052;-74
2023/03/11 08:41:01;;;;;;;0.40;0.40;;;;;;;0.05;100.00;100574.00;6276628;28;20045;-74
2023/03/11 08:44:03;;;;;;;1.05;0.70;;;;;;;0.08;100.00;100570.50;6279299;28;20062;-74
2023/03/11 08:47:06;;;;;;;1.00;0.68;;;;;;;0.04;100.00;100577.44;6274423;28;20055;-75
2023/03/11 08:50:12;;;;;;;6.35;1.02;;;;;;;0.09;100.00;100583.44;6278377;28;20060;-76
2023/03/11 08:53:13;;;;;;;1.75;1.00;;;;;;;0.14;100.00;100588.53;6291876;28;20055;-75
2023/03/11 08:56:14;;;;;;;4.15;0.98;;;;;;;0.14;100.00;100588.53;6297438;28;20476;-75
2023/03/11 08:59:16;;;;;;;2.15;0.80;;;;;;;0.18;100.00;100588.47;6280354;28;20055;-76
2023/03/11 09:02:18;;;;;;;4.32;1.20;;;;;;;0.23;100.00;100593.56;6275455;28;20055;-74
2023/03/11 09:05:20;;;;;;;8.48;0.43;;;;;;;0.20;100.00;100589.28;6275063;28;20052;-75
2023/03/11 09:08:21;;;;;;;0.75;0.68;;;;;;;0.28;100.00;100601.25;6273693;28;20049;-76
2023/03/11 09:11:23;;;;;;;1.45;0.60;;;;;;;0.27;100.00;100599.53;6273643;28;20045;-76
2023/03/11 09:14:25;;;;;;;6.35;0.70;;;;;;;0.29;100.00;100598.66;6279879;28;20111;-76
2023/03/11 09:17:27;;;;;;;0.50;0.47;;;;;;;0.32;100.00;100600.31;6281854;28;20048;-76
2023/03/11 09:20:29;;;;;;;0.88;0.88;;;;;;;0.34;100.00;100602.03;6282195;28;20440;-76
2023/03/11 09:23:30;;;;;;;10.07;0.77;;;;;;;0.40;100.00;100604.50;6285128;28;20084;-76
2023/03/11 09:26:32;;;;;;;3.05;0.57;;;;;;;0.50;100.00;100600.09;6280042;28;20045;-73
2023/03/11 09:29:34;;;;;;;1.42;0.80;;;;;;;0.43;100.00;100609.66;6279625;28;20129;-76
2023/03/11 09:32:36;;;;;;;0.68;0.68;;;;;;;0.45;100.00;100602.72;6283047;28;20360;-76
2023/03/11 09:35:38;;;;;;;2.80;0.90;;;;;;;0.51;100.00;100609.53;6291165;28;20048;-79
2023/03/11 09:38:40;;;;;;;3.28;1.05;;;;;;;0.59;100.00;100612.88;6299198;28;20048;-76
2023/03/11 09:41:49;;;;;;;3.40;1.30;;;;;;;0.57;100.00;100624.97;6300066;28;20048;-76
2023/03/11 09:44:57;;;;;;;0.55;0.43;;;;;;;0.59;100.00;100618.06;6299229;28;20052;-77
2023/03/11 09:48:11;;;;;;;5.80;0.70;;;;;;;0.62;100.00;100618.00;6299743;28;20045;-76
2023/03/11 09:51:21;;;;;;;7.22;1.15;;;;;;;0.65;100.00;100628.28;6298310;28;20052;-76
2023/03/11 09:54:23;;;;;;;1.67;0.47;;;;;;;0.68;100.00;100619.63;6300024;28;20071;-76
2023/03/11 09:57:29;;;;;;;2.50;1.10;;;;;;;0.75;100.00;100631.59;6299739;28;20049;-76
2023/03/11 10:00:31;;;;;;;0.52;0.40;;;;;;;0.81;100.00;100628.91;6299965;28;20056;-76
2023/03/11 10:03:35;;;;;;;2.60;0.82;;;;;;;0.81;100.00;100636.66;6299904;28;20106;-76
2023/03/11 10:06:39;;;;;;;0.77;0.60;;;;;;;0.79;100.00;100643.59;6299705;28;20044;-77
2023/03/11 10:09:44;;;;;;;1.85;1.23;;;;;;;0.76;100.00;100641.91;6299327;28;20353;-76
2023/03/11 10:12:55;;;;;;;3.33;0.63;;;;;;;0.78;100.00;100641.06;6299649;28;20056;-76
2023/03/11 10:16:06;;;;;;;3.10;0.93;;;;;;;0.82;100.00;100646.16;6302504;28;20146;-76
2023/03/11 10:19:13;;;;;;;5.65;1.35;;;;;;;0.92;100.00;100646.88;6304371;28;20044;-76
2023/03/11 10:22:26;;;;;;;2.05;0.75;;;;;;;0.92;100.00;100650.31;6295669;28;20056;-71
2023/03/11 10:25:34;;;;;;;0.82;0.80;;;;;;;0.93;100.00;100653.75;6278655;28;20056;-76
2023/03/11 10:28:42;;;;;;;1.75;1.08;;;;;;;0.97;100.00;100655.41;6280799;28;20117;-76
2023/03/11 10:31:48;;;;;;;2.70;0.82;;;;;;;0.93;100.00;100657.19;6280899;28;20072;-76
2023/03/11 10:34:57;;;;;;;1.40;1.30;;;;;;;0.92;100.00;100658.06;6280589;28;20056;-76
2023/03/11 10:38:03;;;;;;;1.55;0.90;;;;;;;1.02;100.00;100649.28;6295764;28;20051;-76
2023/03/11 10:41:12;;;;;;;2.25;1.05;;;;;;;1.06;100.00;100663.03;6286748;28;20052;-76
2023/03/11 10:44:15;;;;;;;;;;;;;;;1.12;100.00;100662.06;6297988;28;20431;-76
2023/03/11 10:47:18;;;;;;;1.17;0.93;;;;;;;1.17;100.00;100652.50;6298524;28;19927;-76
2023/03/11 10:50:21;;;;;;;3.55;0.90;;;;;;;1.24;100.00;100662.72;6287864;28;20056;-76
2023/03/11 10:53:23;;;;;;;4.75;1.17;;;;;;;1.18;100.00;100661.97;6297860;28;20356;-76
2023/03/11 10:56:27;;;;;;;2.63;0.65;;;;;;;1.32;100.00;100664.31;6302841;28;20128;-77
2023/03/11 10:59:30;;;;;;;0.60;0.60;;;;;;;1.40;100.00;100665.91;6286619;28;20059;-76
2023/03/11 11:02:33;;;;;;;6.68;0.75;;;;;;;1.45;100.00;100671.88;6289785;28;20441;-76
2023/03/11 11:05:36;;;;;;;5.25;1.52;;;;;;;1.55;100.00;100671.72;6302221;28;20055;-76
2023/03/11 11:08:38;;;;;;;1.02;0.90;;;;;;;1.62;100.00;100673.31;6302575;28;20097;-76
2023/03/11 11:11:39;;;;;;;0.68;0.68;;;;;;;1.67;100.00;100676.66;6295161;28;20441;-76
2023/03/11 11:14:46;;;;;;;0.68;0.68;;;;;;;1.75;100.00;100677.38;6280864;28;20052;-75
2023/03/11 11:17:47;;;;;;;11.45;0.80;;;;;;;1.78;100.00;100679.94;6277928;28;20056;-75
2023/03/11 11:21:00;;;;;;;2.15;0.73;;;;;;;1.79;100.00;100686.81;6285754;28;20055;-77
2023/03/11 11:24:14;;;;;;;0.95;0.77;;;;;;;1.89;100.00;100680.56;6287263;28;20190;-75
2023/03/11 11:27:18;;;;;;;6.35;0.68;;;;;;;2.02;100.00;100679.47;6282579;28;20052;-76
2023/03/11 11:30:19;;;;;;;0.65;0.65;;;;;;;2.09;100.00;100681.91;6286257;28;20090;-76
2023/03/11 11:33:26;;;;;;;1.35;1.00;;;;;;;2.11;100.00;100687.94;6282652;28;20052;-75
2023/03/11 11:36:32;;;;;;;1.20;0.88;;;;;;;2.21;100.00;100690.31;6280538;28;20438;-76
2023/03/11 11:39:50;;;;;;;3.67;2.15;;;;;;;2.32;100.00;100678.88;6283936;28;20131;-77
2023/03/11 11:42:55;;;;;;;0.73;0.73;;;;;;;2.45;100.00;100685.50;6286729;28;20059;-77
2023/03/11 11:46:02;;;;;;;4.30;1.23;;;;;;;2.60;100.00;100684.34;6287138;28;20455;-77
2023/03/11 11:49:13;;;;;;;1.98;0.65;;;;;;;2.45;100.00;100682.91;6281560;28;20052;-77
2023/03/11 11:52:19;;;;;;;0.50;0.43;;;;;;;2.52;100.00;100687.94;6287880;28;20048;-79
2023/03/11 11:55:24;;;;;;;1.83;0.93;;;;;;;2.71;100.00;100688.41;6277269;28;20041;-79
2023/03/11 11:58:27;;;;;;;0.60;0.60;;;;;;;2.76;100.00;100683.13;6285600;28;20044;-80
2023/03/11 12:01:39;;;;;;;2.80;1.25;;;;;;;2.95;100.00;100681.84;6297190;28;20186;-80
2023/03/11 12:04:49;;;;;;;1.00;0.75;;;;;;;3.11;100.00;100686.66;6279322;28;20052;-77
2023/03/11 12:08:05;;;;;;;1.05;0.57;;;;;;;3.24;100.00;100673.34;6283896;28;20079;-78
2023/03/11 12:11:13;;;;;;;9.15;0.98;;;;;;;3.28;100.00;100674.97;6277548;28;20357;-78
2023/03/11 12:14:21;;;;;;;5.90;0.80;;;;;;;3.46;100.00;100670.22;6293484;28;20052;-80
2023/03/11 12:17:25;;;;;;;1.17;0.88;;;;;;;3.54;100.00;100679.53;6300388;28;20341;-82
2023/03/11 12:20:32;;;;;;;1.02;0.57;;;;;;;3.65;100.00;100679.25;6298178;28;20361;-80
2023/03/11 12:23:50;;;;;;;5.82;0.77;;;;;;;3.68;100.00;100683.50;6293311;28;20045;-78
2023/03/11 12:26:53;;;;;;;1.50;0.73;;;;;;;3.74;100.00;100680.75;6291913;28;20049;-81
2023/03/11 12:29:58;;;;;;;1.33;1.02;;;;;;;3.83;100.00;100680.50;6276384;28;20045;-76
2023/03/11 12:33:03;;;;;;;2.60;1.00;;;;;;;3.99;100.00;100678.31;6292290;28;20056;-76
2023/03/11 12:36:09;;;;;;;1.38;0.80;;;;;;;3.97;100.00;100680.13;6289292;28;20048;-76
2023/03/11 12:39:23;;;;;;;1.30;0.70;;;;;;;4.06;100.00;100690.28;6283149;28;20056;-76
2023/03/11 12:42:39;;;;;;;0.80;0.57;;;;;;;3.90;100.00;100687.22;6287702;28;20055;-76
2023/03/11 12:45:50;;;;;;;0.50;0.50;;;;;;;4.04;100.00;100687.72;6285112;28;20052;-76
2023/03/11 12:49:10;;;;;;;2.15;0.55;;;;;;;4.40;100.00;100684.97;6288874;28;20049;-76
2023/03/11 12:52:29;;;;;;;0.63;0.60;;;;;;;4.47;100.00;100689.09;6283734;28;20441;-76
2023/03/11 12:55:34;;;;;;;6.32;1.45;;;;;;;4.51;100.00;100693.31;6283836;28;20045;-75
2023/03/11 12:59:00;;;;;;;1.27;1.00;;;;;;;4.62;100.00;100692.16;6285711;28;20091;-76
2023/03/11 13:02:20;;;;;;;4.97;0.63;;;;;;;4.91;100.00;100693.91;6284001;28;20057;-76
2023/03/11 13:05:25;;;;;;;2.25;0.88;;;;;;;4.97;100.00;100696.31;6283935;28;20056;-76
2023/03/11 13:08:32;;;;;;;6.45;1.13;;;;;;;4.84;100.00;100696.66;6283466;28;20052;-76
2023/03/11 13:11:43;;;;;;;0.73;0.60;;;;;;;4.84;100.00;100691.47;6286340;28;20052;-76
2023/03/11 13:14:44;;;;;;;9.77;1.08;;;;;;;4.74;100.00;100691.78;6283589;28;20074;-76
2023/03/11 13:17:59;;;;;;;0.63;0.57;;;;;;;5.01;100.00;100698.75;6284124;28;20045;-75
2023/03/11 13:21:04;;;;;;;1.90;0.40;;;;;;;4.88;100.00;100704.41;6300229;28;20368;-76
2023/03/11 13:24:38;;;;;;;1.42;0.68;;;;;;;5.04;100.00;100697.78;6300208;28;20049;-76
2023/03/11 13:27:48;;;;;;;4.25;1.35;;;;;;;5.23;100.00;100704.16;6299791;28;20053;-76
2023/03/11 13:30:55;;;;;;;1.17;0.63;;;;;;;5.17;100.00;100704.31;6285151;28;20083;-76
2023/03/11 13:34:02;;;;;;;1.65;0.90;;;;;;;5.20;100.00;100708.59;6275225;28;20235;-76
2023/03/11 13:37:16;;;;;;;5.28;1.33;;;;;;;4.90;100.00;100706.03;6275200;28;20055;-75
2023/03/11 13:40:28;;;;;;;2.05;0.70;;;;;;;4.95;100.00;100711.09;6275035;28;20373;-76
2023/03/11 13:43:31;;;;;;;2.65;0.88;;;;;;;5.09;100.00;100701.97;6295836;28;20061;-75
2023/03/11 13:46:38;;;;;;;14.82;1.23;;;;;;;5.01;100.00;100703.97;6295319;28;20052;-75
2023/03/11 13:49:44;;;;;;;5.43;1.00;;;;;;;5.11;100.00;100706.28;6288332;28;20128;-74
2023/03/11 13:52:48;;;;;;;2.67;1.00;;;;;;;5.47;100.00;100706.84;6299930;28;20170;-75
2023/03/11 13:55:50;;;;;;;1.83;0.80;;;;;;;5.83;100.00;100713.44;6291598;28;20044;-75
2023/03/11 13:58:53;;;;;;;0.70;0.60;;;;;;;5.81;100.00;100715.25;6299527;28;20048;-75
2023/03/11 14:01:58;;;;;;;3.30;0.85;;;;;;;5.84;100.00;100714.28;6284590;28;20045;-75
2023/03/11 14:05:06;;;;;;;4.43;1.17;;;;;;;5.91;100.00;100720.16;6283048;28;20135;-74
2023/03/11 14:08:12;;;;;;;4.38;1.02;;;;;;;5.92;100.00;100725.34;6282742;28;20128;-75
2023/03/11 14:11:17;;;;;;;1.15;0.80;;;;;;;5.84;100.00;100725.56;6288533;28;20326;-75